Angelica, Pennsylvania
Current Conditions -  °F | °C
As of 12:54 PM on Monday 22 Dec 2014 (Local Time) from KRDG Reporting Station
Broken Clouds Broken Clouds  
Wind Chill: 39°   Ceiling: 6000
Heat Index: 39°   Visibility: 10mi
Dew Point: 29°   Wind: 0mph
Humidity: 67%   Direction: NA
Pressure: 30.23"   Gusts: NA
Location:  40.2411°N, 75.9752°W
Report Text: KRDG 221754Z AUTO 00000KT 10SM SCT025 BKN060 04/M02 A3023 RMK AO2 SLP246 T00391017 10039 21056 56031
Loading
Personal Weather Stations






























Interactive Weather Map New forecast layout! Learn more

10-Day Weather Forecast

Advertisements
Track Severe Weather on mobile